Time;durP1;ratioP1;P1;durP2;ratioP2;P2;SDS_P1;SDS_P2;PMS_P1;PMS_P2;Temp;Humidity;BMP_temperature;BMP_pressure;BME280_temperature;BME280_humidity;BME280_pressure;Samples;Min_cycle;Max_cycle;Signal;HPM_P1;HPM_P2
2022/12/08 00:02:15;;;;;;;8.98;0.93;;;3.50;99.90;;;;;;4952442;28;20295;-88
2022/12/08 00:10:49;;;;;;;1.40;0.60;;;3.60;99.90;;;;;;4987869;28;20133;-88
2022/12/08 00:13:24;;;;;;;3.10;0.50;;;3.60;99.90;;;;;;4950204;28;20469;-89
2022/12/08 00:16:10;;;;;;;7.10;0.80;;;3.60;99.90;;;;;;4983095;28;20042;-88
2022/12/08 00:18:55;;;;;;;;;;;;;;;;;;;;;
2022/12/08 00:21:30;;;;;;;1.30;0.40;;;3.70;99.90;;;;;;4983515;28;20042;-88
2022/12/08 00:24:09;;;;;;;;;;;;;;;;;;;;;
2022/12/08 00:26:53;;;;;;;1.45;0.40;;;3.70;99.90;;;;;;4984862;28;20830;-88
2022/12/08 00:29:21;;;;;;;0.80;0.20;;;3.70;99.90;;;;;;4968192;28;20231;-88
2022/12/08 00:31:47;;;;;;;1.08;0.47;;;3.70;99.90;;;;;;4962325;28;20476;-87
2022/12/08 00:34:16;;;;;;;0.37;0.10;;;3.60;99.90;;;;;;4955990;28;20129;-87
2022/12/08 00:36:51;;;;;;;2.63;0.52;;;3.60;99.90;;;;;;4957511;28;20046;-88
2022/12/08 00:39:22;;;;;;;2.83;0.20;;;3.50;99.90;;;;;;4953739;28;20409;-87
2022/12/08 00:44:45;;;;;;;1.38;0.25;;;3.40;99.90;;;;;;4988543;28;20486;-88
2022/12/08 00:47:16;;;;;;;0.60;0.32;;;3.30;99.90;;;;;;4955634;28;20050;-87
2022/12/08 00:49:50;;;;;;;1.65;0.40;;;3.30;99.90;;;;;;4955640;28;20042;-88
2022/12/08 00:52:27;;;;;;;3.95;0.60;;;3.40;99.90;;;;;;4969720;28;20057;-88
2022/12/08 00:54:56;;;;;;;3.70;0.30;;;3.30;99.90;;;;;;4969692;28;20265;-88
2022/12/08 00:57:31;;;;;;;0.43;0.10;;;3.30;99.90;;;;;;4951553;28;20042;-89
2022/12/08 01:00:20;;;;;;;0.50;0.13;;;3.30;99.90;;;;;;4971697;28;20519;-88
2022/12/08 01:03:25;;;;;;;0.43;0.30;;;3.30;99.90;;;;;;4958310;28;20053;-89
2022/12/08 01:05:56;;;;;;;0.40;0.20;;;3.20;99.90;;;;;;4949525;28;20475;-89
2022/12/08 01:08:47;;;;;;;3.22;0.20;;;3.20;99.90;;;;;;4969601;28;20042;-89
2022/12/08 01:11:20;;;;;;;3.00;0.32;;;3.10;99.90;;;;;;4955058;28;20046;-87
2022/12/08 01:14:00;;;;;;;1.08;0.17;;;3.20;99.90;;;;;;4973586;28;20042;-88
2022/12/08 01:16:31;;;;;;;0.82;0.30;;;3.10;99.90;;;;;;4965673;28;20049;-89
2022/12/08 01:19:01;;;;;;;1.65;0.30;;;3.10;99.90;;;;;;4957838;28;20034;-88
2022/12/08 01:21:27;;;;;;;0.57;0.35;;;3.10;99.90;;;;;;4990556;28;20068;-88
2022/12/08 01:23:58;;;;;;;3.97;0.90;;;3.10;99.90;;;;;;4957596;28;20034;-87
2022/12/08 01:26:26;;;;;;;0.98;0.20;;;3.10;99.90;;;;;;4957599;28;20057;-88
2022/12/08 01:28:52;;;;;;;1.30;0.20;;;3.20;99.90;;;;;;4973833;28;20077;-86
2022/12/08 01:31:22;;;;;;;3.80;0.50;;;3.20;99.90;;;;;;4972245;28;20070;-87
2022/12/08 01:33:49;;;;;;;1.63;0.43;;;3.20;99.90;;;;;;4972593;28;20637;-87
2022/12/08 01:36:38;;;;;;;;;;;3.20;99.90;;;;;;4956608;28;20100;-84
2022/12/08 01:39:07;;;;;;;;;;;3.20;99.90;;;;;;4972225;28;19917;-87
2022/12/08 01:41:37;;;;;;;3.05;0.65;;;3.20;99.90;;;;;;4972327;28;20384;-87
2022/12/08 01:44:07;;;;;;;3.50;0.75;;;3.20;99.90;;;;;;4955302;28;20038;-88
2022/12/08 01:46:34;;;;;;;8.77;0.65;;;3.20;99.90;;;;;;4952620;28;20518;-87
2022/12/08 01:49:12;;;;;;;8.68;0.73;;;3.20;99.90;;;;;;4964990;28;20501;-87
2022/12/08 01:51:41;;;;;;;;;;;3.10;99.90;;;;;;4974506;28;20077;-87
2022/12/08 01:54:07;;;;;;;1.48;0.20;;;3.10;99.90;;;;;;4961011;28;19922;-88
2022/12/08 01:56:44;;;;;;;4.28;0.30;;;3.10;99.90;;;;;;4970636;28;20089;-88
2022/12/08 01:59:13;;;;;;;0.68;0.22;;;3.10;99.90;;;;;;4958924;28;20498;-87
2022/12/08 02:01:38;;;;;;;1.65;0.20;;;3.10;99.90;;;;;;4972280;28;20413;-87
2022/12/08 02:04:08;;;;;;;0.80;0.10;;;3.10;99.90;;;;;;4991981;28;20068;-87
2022/12/08 02:06:40;;;;;;;5.05;0.52;;;3.10;99.90;;;;;;4956188;28;20046;-87
2022/12/08 02:09:09;;;;;;;0.75;0.20;;;3.10;99.90;;;;;;4958680;28;20061;-89
2022/12/08 02:11:38;;;;;;;1.15;0.17;;;3.10;99.90;;;;;;4954875;28;20042;-87
2022/12/08 02:14:08;;;;;;;0.33;0.10;;;3.10;99.90;;;;;;4955798;28;20046;-87
2022/12/08 02:16:47;;;;;;;0.70;0.15;;;3.10;99.90;;;;;;4956865;28;20038;-87
2022/12/08 02:19:47;;;;;;;0.75;0.17;;;3.10;99.90;;;;;;4955776;28;20099;-87
2022/12/08 02:22:32;;;;;;;0.82;0.20;;;3.10;99.90;;;;;;4953001;28;20039;-87
2022/12/08 02:25:25;;;;;;;0.25;0.10;;;3.10;99.90;;;;;;4974692;28;20044;-87
2022/12/08 02:28:20;;;;;;;0.57;0.13;;;3.00;99.90;;;;;;4956475;28;20073;-87
2022/12/08 02:31:15;;;;;;;0.22;0.10;;;3.10;99.90;;;;;;4954361;28;20057;-87
2022/12/08 02:34:01;;;;;;;1.48;0.20;;;3.00;99.90;;;;;;4989769;28;20056;-88
2022/12/08 02:36:48;;;;;;;5.65;0.73;;;3.10;99.90;;;;;;4972311;28;20194;-85
2022/12/08 02:39:27;;;;;;;1.58;0.68;;;3.00;99.90;;;;;;4972558;28;20525;-87
2022/12/08 02:42:32;;;;;;;2.97;0.30;;;3.10;99.90;;;;;;4966162;28;20536;-86
2022/12/08 02:45:09;;;;;;;;;;;3.00;99.90;;;;;;4971723;28;20070;-88
2022/12/08 02:47:38;;;;;;;1.02;0.10;;;3.10;99.90;;;;;;4990565;28;19928;-86
2022/12/08 02:50:04;;;;;;;0.75;0.25;;;3.20;99.90;;;;;;4957229;28;20045;-86
2022/12/08 02:52:30;;;;;;;0.98;0.20;;;3.10;99.90;;;;;;4971341;28;20092;-87
2022/12/08 02:55:07;;;;;;;0.27;0.03;;;3.20;99.90;;;;;;4961591;28;20050;-86
2022/12/08 02:57:58;;;;;;;2.83;0.28;;;3.20;99.90;;;;;;4974500;28;20042;-86
2022/12/08 03:00:26;;;;;;;1.58;0.65;;;3.20;99.90;;;;;;4959962;28;20051;-86
2022/12/08 03:03:05;;;;;;;1.02;0.20;;;3.20;99.90;;;;;;4961419;28;20031;-86
2022/12/08 03:05:51;;;;;;;0.57;0.00;;;3.20;99.90;;;;;;4989438;28;20410;-85
2022/12/08 03:08:49;;;;;;;1.30;0.00;;;3.10;99.90;;;;;;4962849;28;20561;-86
2022/12/08 03:11:33;;;;;;;0.05;0.05;;;2.90;99.90;;;;;;4972180;28;20046;-89
2022/12/08 03:14:05;;;;;;;0.70;0.50;;;2.70;99.90;;;;;;4969947;28;20036;-87
2022/12/08 03:16:37;;;;;;;0.35;0.10;;;2.60;99.90;;;;;;4973588;28;20030;-88
2022/12/08 03:19:25;;;;;;;0.80;0.08;;;2.60;99.90;;;;;;4951024;28;20061;-86
2022/12/08 03:22:01;;;;;;;0.90;0.10;;;2.60;99.90;;;;;;4988213;28;20378;-86
2022/12/08 03:24:53;;;;;;;0.10;0.00;;;2.40;99.90;;;;;;4972753;28;20406;-87
2022/12/08 03:27:28;;;;;;;0.80;0.20;;;2.40;99.90;;;;;;4957917;28;20141;-86
2022/12/08 03:29:59;;;;;;;0.35;0.05;;;2.30;99.90;;;;;;4954375;28;20085;-86
2022/12/08 03:32:52;;;;;;;0.10;0.03;;;2.30;99.90;;;;;;4970057;28;20042;-86
2022/12/08 03:35:30;;;;;;;0.15;0.00;;;2.20;99.90;;;;;;4970402;28;20035;-86
2022/12/08 03:38:20;;;;;;;0.60;0.10;;;2.20;99.90;;;;;;4976893;28;20448;-86
2022/12/08 03:41:17;;;;;;;0.85;0.20;;;2.30;99.90;;;;;;4955226;28;20080;-88
2022/12/08 03:43:35;;;;;;;1.65;0.20;;;2.20;99.90;;;;;;4969465;28;20046;-87
2022/12/08 03:46:03;;;;;;;0.25;0.03;;;2.10;99.90;;;;;;4955454;28;20117;-87
2022/12/08 03:48:32;;;;;;;0.20;0.00;;;2.10;99.90;;;;;;4973189;28;20034;-85
2022/12/08 03:50:58;;;;;;;0.00;0.00;;;2.10;99.90;;;;;;4956384;28;20474;-88
2022/12/08 03:53:26;;;;;;;0.67;0.20;;;2.00;99.90;;;;;;4953581;28;20121;-90
2022/12/08 03:55:55;;;;;;;0.70;0.38;;;2.00;99.90;;;;;;4972599;28;20494;-88
2022/12/08 03:58:23;;;;;;;1.55;0.00;;;2.00;99.90;;;;;;4990604;28;20104;-87
2022/12/08 04:00:49;;;;;;;2.72;0.20;;;2.00;99.90;;;;;;4954483;28;20070;-86
2022/12/08 04:03:17;;;;;;;0.00;0.00;;;2.00;99.90;;;;;;4956093;28;20066;-87
2022/12/08 04:05:47;;;;;;;0.70;0.10;;;2.00;99.90;;;;;;4964693;28;20343;-87
2022/12/08 04:08:15;;;;;;;0.40;0.10;;;2.00;99.90;;;;;;4957063;28;20034;-87
2022/12/08 04:10:41;;;;;;;0.15;0.00;;;2.10;99.90;;;;;;4954442;28;20042;-87
2022/12/08 04:13:07;;;;;;;0.10;0.00;;;2.20;99.90;;;;;;4987712;28;20038;-87
2022/12/08 04:15:35;;;;;;;0.83;0.10;;;2.10;99.90;;;;;;4953769;28;20046;-88
2022/12/08 04:18:03;;;;;;;0.05;0.00;;;2.10;99.90;;;;;;4951809;28;20097;-87
2022/12/08 04:20:29;;;;;;;0.45;0.10;;;2.20;99.90;;;;;;4971003;28;20038;-88
2022/12/08 04:23:05;;;;;;;0.70;0.10;;;2.10;99.90;;;;;;4955252;28;20030;-88
2022/12/08 04:25:31;;;;;;;0.10;0.00;;;2.10;99.90;;;;;;4985660;28;20498;-87
2022/12/08 04:28:03;;;;;;;0.53;0.10;;;2.10;99.90;;;;;;4955958;28;20049;-87
2022/12/08 04:30:34;;;;;;;0.17;0.00;;;2.10;99.90;;;;;;4968426;28;20315;-87
2022/12/08 04:33:02;;;;;;;0.57;0.28;;;2.10;99.90;;;;;;4967129;28;20046;-87
2022/12/08 04:35:31;;;;;;;0.68;0.10;;;2.10;99.90;;;;;;4971099;28;20038;-86
2022/12/08 04:37:59;;;;;;;0.05;0.00;;;2.10;99.90;;;;;;4971176;28;20406;-87
2022/12/08 04:40:25;;;;;;;0.55;0.10;;;2.20;99.90;;;;;;4971303;28;20030;-87
2022/12/08 04:42:51;;;;;;;1.83;0.10;;;2.20;99.90;;;;;;4986225;28;20095;-87
2022/12/08 04:45:19;;;;;;;0.40;0.10;;;2.10;99.90;;;;;;4970322;28;20108;-87
2022/12/08 04:47:48;;;;;;;0.43;0.27;;;2.20;99.90;;;;;;4977644;28;20076;-87
2022/12/08 04:52:51;;;;;;;1.58;0.20;;;2.20;99.90;;;;;;5016004;28;20046;-73
2022/12/08 04:55:16;;;;;;;0.47;0.10;;;2.20;99.90;;;;;;5004372;28;20280;-73
2022/12/08 04:57:42;;;;;;;0.40;0.20;;;2.20;99.90;;;;;;5016241;28;20033;-74
2022/12/08 05:00:09;;;;;;;0.52;0.20;;;2.30;99.90;;;;;;5011801;28;20049;-73
2022/12/08 05:02:35;;;;;;;3.10;0.30;;;2.30;99.90;;;;;;5005485;28;20049;-72
2022/12/08 05:05:01;;;;;;;1.77;0.50;;;2.30;99.90;;;;;;5029441;28;20037;-73
2022/12/08 05:07:26;;;;;;;2.37;0.70;;;2.30;99.90;;;;;;5025422;28;20095;-72
2022/12/08 05:09:52;;;;;;;0.70;0.40;;;2.40;99.90;;;;;;5010476;28;20411;-75
2022/12/08 05:12:18;;;;;;;1.07;0.40;;;2.40;99.90;;;;;;5010960;28;20056;-73
2022/12/08 05:14:46;;;;;;;0.50;0.40;;;2.40;99.90;;;;;;5022555;28;20071;-76
2022/12/08 05:17:16;;;;;;;0.88;0.50;;;2.40;99.90;;;;;;5008459;28;20034;-77
2022/12/08 05:19:42;;;;;;;0.95;0.30;;;2.40;99.90;;;;;;5029092;28;20034;-79
2022/12/08 05:22:08;;;;;;;1.07;0.40;;;2.40;99.90;;;;;;4998277;28;20340;-75
2022/12/08 05:24:34;;;;;;;0.93;0.23;;;2.30;99.90;;;;;;4993615;28;20049;-74
2022/12/08 05:26:59;;;;;;;1.13;0.53;;;2.30;99.90;;;;;;5030060;28;20041;-76
2022/12/08 05:29:25;;;;;;;1.17;0.23;;;2.40;99.90;;;;;;5008442;28;20049;-78
2022/12/08 05:31:51;;;;;;;1.73;0.40;;;2.40;99.90;;;;;;5019079;28;20318;-77
2022/12/08 05:34:16;;;;;;;0.67;0.23;;;2.40;99.90;;;;;;5014429;28;20321;-73
2022/12/08 05:36:42;;;;;;;1.13;0.30;;;2.40;99.90;;;;;;5029057;28;20041;-73
2022/12/08 05:39:12;;;;;;;3.40;0.47;;;2.40;99.90;;;;;;5000750;28;20077;-73
2022/12/08 05:41:38;;;;;;;1.67;0.75;;;2.40;99.90;;;;;;5006985;28;20048;-72
2022/12/08 05:44:04;;;;;;;0.80;0.40;;;2.20;99.90;;;;;;5000772;28;20124;-73
2022/12/08 05:46:30;;;;;;;2.25;0.40;;;2.30;99.90;;;;;;4984050;28;20056;-73
2022/12/08 05:48:57;;;;;;;0.77;0.20;;;2.30;99.90;;;;;;5007877;28;20049;-73
2022/12/08 05:51:23;;;;;;;1.38;0.40;;;2.40;99.90;;;;;;5008369;28;20152;-73
2022/12/08 05:53:51;;;;;;;0.30;0.20;;;2.40;99.90;;;;;;5028034;28;20199;-73
2022/12/08 05:56:17;;;;;;;1.48;0.40;;;2.40;99.90;;;;;;5023215;28;20314;-77
2022/12/08 05:58:43;;;;;;;1.35;0.40;;;2.40;99.90;;;;;;5006507;28;21886;-72
2022/12/08 06:01:35;;;;;;;1.80;0.20;;;2.40;99.90;;;;;;5007216;28;20046;-73
2022/12/08 06:04:02;;;;;;;11.18;3.97;;;2.40;99.90;;;;;;5021747;28;20503;-72
2022/12/08 06:06:35;;;;;;;9.40;3.47;;;2.40;99.90;;;;;;5004934;28;20034;-73
2022/12/08 06:09:03;;;;;;;7.43;2.45;;;2.40;99.90;;;;;;5002948;28;20120;-73
2022/12/08 06:11:31;;;;;;;2.17;0.63;;;2.40;99.90;;;;;;5005361;28;20041;-73
2022/12/08 06:13:57;;;;;;;2.25;0.90;;;2.40;99.90;;;;;;5025169;28;20037;-73
2022/12/08 06:16:24;;;;;;;1.45;0.70;;;2.40;99.90;;;;;;5030285;28;20038;-73
2022/12/08 06:18:50;;;;;;;4.43;0.50;;;2.40;99.90;;;;;;5028147;28;20049;-73
2022/12/08 06:21:17;;;;;;;0.80;0.33;;;2.40;99.90;;;;;;5013642;28;20403;-73
2022/12/08 06:23:43;;;;;;;0.98;0.40;;;2.40;99.90;;;;;;5024011;28;20041;-73
2022/12/08 06:26:11;;;;;;;1.35;0.40;;;2.40;99.90;;;;;;5004240;28;20375;-73
2022/12/08 06:28:39;;;;;;;0.57;0.30;;;2.40;99.90;;;;;;5028013;28;20047;-73
2022/12/08 06:31:10;;;;;;;1.92;0.80;;;2.40;99.90;;;;;;4995609;28;20041;-74
2022/12/08 06:33:37;;;;;;;2.58;0.43;;;2.40;99.90;;;;;;5024154;28;20073;-73
2022/12/08 06:36:04;;;;;;;1.23;0.43;;;2.40;99.90;;;;;;5025083;28;20487;-73
2022/12/08 06:38:39;;;;;;;4.15;0.38;;;2.40;99.90;;;;;;5022112;28;20041;-73
2022/12/08 06:41:05;;;;;;;0.65;0.32;;;2.40;99.90;;;;;;5033219;28;20037;-73
2022/12/08 06:43:31;;;;;;;0.65;0.40;;;2.40;99.90;;;;;;5006372;28;20383;-73
2022/12/08 06:46:03;;;;;;;0.93;0.40;;;2.40;99.90;;;;;;5007792;28;20030;-73
2022/12/08 06:48:28;;;;;;;0.95;0.30;;;2.30;99.90;;;;;;5025200;28;20064;-73
2022/12/08 06:50:54;;;;;;;3.00;0.50;;;2.30;99.90;;;;;;5008676;28;20045;-73
2022/12/08 06:53:22;;;;;;;1.10;0.37;;;2.30;99.90;;;;;;5020249;28;20033;-74
2022/12/08 06:55:52;;;;;;;0.60;0.22;;;2.30;99.90;;;;;;4993280;28;20448;-74
2022/12/08 06:58:18;;;;;;;0.80;0.35;;;2.20;99.90;;;;;;5023529;28;20393;-75
2022/12/08 07:00:44;;;;;;;1.65;0.50;;;2.20;99.90;;;;;;5021256;28;20049;-76
2022/12/08 07:03:11;;;;;;;3.58;0.70;;;2.20;99.90;;;;;;5019698;28;20050;-73
2022/12/08 07:05:37;;;;;;;2.38;0.63;;;2.10;99.90;;;;;;5008575;28;20045;-73
2022/12/08 07:08:05;;;;;;;1.40;0.50;;;2.10;99.90;;;;;;4994166;28;20048;-74
2022/12/08 07:10:31;;;;;;;1.85;0.63;;;2.10;99.90;;;;;;5005350;28;20103;-77
2022/12/08 07:12:57;;;;;;;5.38;0.70;;;2.10;99.90;;;;;;5007915;28;20487;-74
2022/12/08 07:15:23;;;;;;;2.30;0.80;;;2.00;99.90;;;;;;5025767;28;20124;-73
2022/12/08 07:17:49;;;;;;;3.13;0.67;;;2.00;99.90;;;;;;5003652;28;20076;-73
2022/12/08 07:20:18;;;;;;;1.40;0.50;;;2.00;99.90;;;;;;4989624;28;20045;-73
2022/12/08 07:22:51;;;;;;;2.45;0.70;;;2.00;99.90;;;;;;5005519;28;20298;-73
2022/12/08 07:25:18;;;;;;;3.35;1.00;;;2.00;99.90;;;;;;5018350;28;20048;-73
2022/12/08 07:27:44;;;;;;;;;;;1.90;99.90;;;;;;5022711;28;20056;-73
2022/12/08 07:30:10;;;;;;;2.17;0.70;;;1.90;99.90;;;;;;5006278;28;19917;-73
2022/12/08 07:32:37;;;;;;;1.27;0.70;;;1.90;99.90;;;;;;5024730;28;20073;-73
2022/12/08 07:35:03;;;;;;;1.60;0.50;;;1.80;99.90;;;;;;5003701;28;20117;-73
2022/12/08 07:37:29;;;;;;;3.80;0.65;;;1.80;99.90;;;;;;5023700;28;20383;-74
2022/12/08 07:39:55;;;;;;;2.05;0.80;;;1.80;99.90;;;;;;5003973;28;20037;-74
2022/12/08 07:42:21;;;;;;;5.00;0.93;;;1.80;99.90;;;;;;5004496;28;20747;-73
2022/12/08 07:44:46;;;;;;;1.70;0.67;;;1.80;99.90;;;;;;5003015;28;20042;-72
2022/12/08 07:47:12;;;;;;;2.10;1.00;;;1.80;99.90;;;;;;5023266;28;20190;-73
2022/12/08 07:49:38;;;;;;;2.20;0.77;;;1.70;99.90;;;;;;5022457;28;20566;-73
2022/12/08 07:52:04;;;;;;;2.03;0.90;;;1.70;99.90;;;;;;5024697;28;20087;-73
2022/12/08 07:54:31;;;;;;;2.43;1.00;;;1.70;99.90;;;;;;5009891;28;20046;-73
2022/12/08 07:56:57;;;;;;;2.05;0.90;;;1.60;99.90;;;;;;5010028;28;20037;-73
2022/12/08 07:59:23;;;;;;;2.00;1.10;;;1.70;99.90;;;;;;5029077;28;20163;-73
2022/12/08 08:01:50;;;;;;;2.50;0.47;;;1.70;99.90;;;;;;5006949;28;20451;-73
2022/12/08 08:04:18;;;;;;;2.05;0.60;;;1.70;99.90;;;;;;5006547;28;20053;-73
2022/12/08 08:06:44;;;;;;;3.85;1.05;;;1.70;99.90;;;;;;5025040;28;20424;-73
2022/12/08 08:09:10;;;;;;;4.13;1.00;;;1.70;99.90;;;;;;5010608;28;20071;-73
2022/12/08 08:11:36;;;;;;;2.57;1.07;;;1.70;99.90;;;;;;5029607;28;20132;-73
2022/12/08 08:14:02;;;;;;;2.58;0.95;;;1.60;99.90;;;;;;5010700;28;20037;-73
2022/12/08 08:16:27;;;;;;;2.83;0.53;;;1.70;99.90;;;;;;5006529;28;20096;-73
2022/12/08 08:18:53;;;;;;;3.03;0.70;;;1.70;99.90;;;;;;5006382;28;20395;-73
2022/12/08 08:21:19;;;;;;;2.90;0.50;;;1.60;99.90;;;;;;5006702;28;20045;-73
2022/12/08 08:23:48;;;;;;;1.80;0.60;;;1.70;99.90;;;;;;5009910;28;20048;-73
2022/12/08 08:26:14;;;;;;;1.77;0.70;;;1.70;99.90;;;;;;5021791;28;20092;-73
2022/12/08 08:28:40;;;;;;;3.13;0.90;;;1.70;99.90;;;;;;4986349;28;20132;-73
2022/12/08 08:31:06;;;;;;;6.20;1.08;;;1.70;99.90;;;;;;4996243;28;20045;-73
2022/12/08 08:33:35;;;;;;;3.00;0.70;;;1.60;99.90;;;;;;5009799;28;20060;-73
2022/12/08 08:36:04;;;;;;;2.08;0.60;;;1.70;99.90;;;;;;5006350;28;20274;-73
2022/12/08 08:38:30;;;;;;;1.48;0.55;;;1.70;99.90;;;;;;5012476;28;20041;-73
2022/12/08 08:40:56;;;;;;;3.43;1.43;;;1.70;99.90;;;;;;5005597;28;20045;-73
2022/12/08 08:43:27;;;;;;;2.75;0.82;;;1.70;99.90;;;;;;5016546;28;20038;-73
2022/12/08 08:46:00;;;;;;;2.92;0.85;;;1.70;99.90;;;;;;5024359;28;20384;-73
2022/12/08 08:48:27;;;;;;;3.45;1.20;;;1.70;99.90;;;;;;5015997;28;20041;-73
2022/12/08 08:50:53;;;;;;;4.97;1.10;;;1.70;99.90;;;;;;5026123;28;20033;-73
2022/12/08 08:53:19;;;;;;;1.65;0.80;;;1.80;99.90;;;;;;5001198;28;20094;-73
2022/12/08 08:55:44;;;;;;;2.33;0.87;;;1.80;99.90;;;;;;5014876;28;20053;-73
2022/12/08 08:58:10;;;;;;;1.80;0.95;;;1.80;99.90;;;;;;5021371;28;20075;-73
2022/12/08 09:00:36;;;;;;;1.88;1.05;;;1.90;99.90;;;;;;5004525;28;20064;-73
2022/12/08 09:03:02;;;;;;;3.70;1.43;;;1.90;99.90;;;;;;5018274;28;20430;-73
2022/12/08 09:05:27;;;;;;;2.20;1.07;;;2.00;99.90;;;;;;5017865;28;20038;-73
2022/12/08 09:07:53;;;;;;;2.90;1.03;;;2.10;99.90;;;;;;4999571;28;20090;-73
2022/12/08 09:10:19;;;;;;;4.30;1.00;;;2.20;99.90;;;;;;5020454;28;20045;-72
2022/12/08 09:12:44;;;;;;;3.60;1.73;;;2.20;99.90;;;;;;5027619;28;20468;-72
2022/12/08 09:15:10;;;;;;;5.27;1.80;;;2.30;99.90;;;;;;5012579;28;20042;-73
2022/12/08 09:17:37;;;;;;;5.77;1.50;;;2.30;99.90;;;;;;5023978;28;20511;-74
2022/12/08 09:20:04;;;;;;;14.68;2.05;;;2.50;99.90;;;;;;5024819;28;20081;-73
2022/12/08 09:22:33;;;;;;;4.53;1.52;;;2.50;99.90;;;;;;5023532;28;20033;-73
2022/12/08 09:25:01;;;;;;;3.65;1.58;;;2.50;99.90;;;;;;5007647;28;20051;-72
2022/12/08 09:27:27;;;;;;;3.33;0.73;;;2.60;99.90;;;;;;5021641;28;20243;-72
2022/12/08 09:29:52;;;;;;;4.37;1.63;;;2.70;99.90;;;;;;5001997;28;20368;-71
2022/12/08 09:32:18;;;;;;;2.40;0.90;;;2.80;99.90;;;;;;5013857;28;20036;-70
2022/12/08 09:34:44;;;;;;;3.87;1.30;;;2.80;99.90;;;;;;5010565;28;20045;-70
2022/12/08 09:37:09;;;;;;;5.67;1.10;;;2.80;99.90;;;;;;4996446;28;20029;-69
2022/12/08 09:39:35;;;;;;;3.10;0.90;;;2.80;99.90;;;;;;5007749;28;20037;-70
2022/12/08 09:42:04;;;;;;;2.53;0.50;;;2.80;99.90;;;;;;5020822;28;20087;-70
2022/12/08 09:44:37;;;;;;;9.70;0.80;;;2.80;99.90;;;;;;5012922;28;20104;-70
2022/12/08 09:47:09;;;;;;;2.63;0.60;;;2.80;99.90;;;;;;5015967;28;20168;-70
2022/12/08 09:49:54;;;;;;;5.32;0.90;;;2.80;99.90;;;;;;5027708;28;20403;-69
2022/12/08 09:52:27;;;;;;;2.95;0.80;;;2.80;99.90;;;;;;5026501;28;20050;-70
2022/12/08 09:54:58;;;;;;;3.72;0.82;;;2.90;99.90;;;;;;5032536;28;20042;-70
2022/12/08 09:57:24;;;;;;;5.82;1.17;;;2.90;99.90;;;;;;5008485;28;20037;-70
2022/12/08 10:00:01;;;;;;;4.25;0.88;;;3.00;99.90;;;;;;5016171;28;20080;-70
2022/12/08 10:02:29;;;;;;;6.25;1.25;;;3.00;99.90;;;;;;5025723;28;20168;-70
2022/12/08 10:04:57;;;;;;;3.00;0.90;;;3.00;99.90;;;;;;4991722;28;20108;-70
2022/12/08 10:07:37;;;;;;;6.00;1.48;;;3.00;99.90;;;;;;4981877;28;20127;-70
2022/12/08 10:10:35;;;;;;;1.20;0.73;;;3.00;99.90;;;;;;4994943;28;20056;-69
2022/12/08 10:13:27;;;;;;;6.07;1.33;;;3.00;99.90;;;;;;5005861;28;20045;-70
2022/12/08 10:16:12;;;;;;;6.43;1.45;;;3.10;99.90;;;;;;5024730;28;20291;-70
2022/12/08 10:18:38;;;;;;;2.58;0.93;;;3.20;99.90;;;;;;5010117;28;20052;-70
2022/12/08 10:21:17;;;;;;;2.50;0.90;;;3.30;99.90;;;;;;5024015;28;20033;-70
2022/12/08 10:23:54;;;;;;;2.35;1.00;;;3.40;99.90;;;;;;5005249;28;20340;-70
2022/12/08 10:26:21;;;;;;;2.08;0.88;;;3.40;99.90;;;;;;5011004;28;20045;-70
2022/12/08 10:28:47;;;;;;;2.53;0.80;;;3.60;99.90;;;;;;5008242;28;20037;-70
2022/12/08 10:31:23;;;;;;;2.67;0.90;;;3.70;99.90;;;;;;5025985;28;20060;-69
2022/12/08 10:34:09;;;;;;;4.20;1.10;;;3.70;99.90;;;;;;5009677;28;20068;-69
2022/12/08 10:36:48;;;;;;;5.32;1.13;;;3.80;99.90;;;;;;5026173;28;20044;-70
2022/12/08 10:39:38;;;;;;;2.90;1.10;;;3.90;99.90;;;;;;5023401;28;20112;-69
2022/12/08 10:42:12;;;;;;;5.90;1.10;;;4.10;99.90;;;;;;5022962;28;20399;-69
2022/12/08 10:44:56;;;;;;;6.30;1.20;;;4.20;99.90;;;;;;5007503;28;20487;-70
2022/12/08 10:47:27;;;;;;;5.43;1.52;;;4.30;99.90;;;;;;5026713;28;20041;-69
2022/12/08 10:50:18;;;;;;;2.92;0.93;;;4.30;99.90;;;;;;5027985;28;20037;-69
2022/12/08 10:52:54;;;;;;;3.40;1.05;;;4.40;99.90;;;;;;5043470;23;20128;-87
2022/12/08 10:55:20;;;;;;;4.30;1.02;;;4.50;99.90;;;;;;5026289;28;20080;-87
2022/12/08 10:57:52;;;;;;;4.03;1.10;;;4.60;99.90;;;;;;5026369;28;20042;-87
2022/12/08 11:00:28;;;;;;;4.82;1.10;;;4.70;99.90;;;;;;5031402;28;20045;-88
2022/12/08 11:03:26;;;;;;;1.95;1.00;;;4.80;99.90;;;;;;5043795;28;20061;-88
2022/12/08 11:05:57;;;;;;;2.47;1.20;;;5.00;99.90;;;;;;5011215;28;20508;-88
2022/12/08 11:08:27;;;;;;;8.98;1.33;;;5.10;99.90;;;;;;5029372;28;20083;-88
2022/12/08 11:10:53;;;;;;;3.28;1.05;;;5.20;99.90;;;;;;5008596;28;20040;-88
2022/12/08 11:13:26;;;;;;;5.60;1.35;;;5.20;99.90;;;;;;5019637;28;20045;-88
2022/12/08 11:16:10;;;;;;;1.58;0.75;;;5.10;99.90;;;;;;5015677;28;20049;-88
2022/12/08 11:19:08;;;;;;;2.70;0.73;;;5.10;99.90;;;;;;5018420;28;20260;-87
2022/12/08 11:22:04;;;;;;;3.40;1.30;;;4.90;99.90;;;;;;5010061;28;20052;-87
2022/12/08 11:25:02;;;;;;;2.50;0.90;;;4.80;99.90;;;;;;5016881;28;20210;-87
2022/12/08 11:27:32;;;;;;;4.47;1.20;;;4.70;99.90;;;;;;5010571;28;20033;-88
2022/12/08 11:30:25;;;;;;;5.25;1.35;;;4.50;99.90;;;;;;5027189;28;20037;-87
2022/12/08 11:33:25;;;;;;;4.22;0.80;;;4.50;99.90;;;;;;5024912;28;20390;-88
2022/12/08 11:36:13;;;;;;;2.85;1.20;;;4.40;99.90;;;;;;5011553;28;20133;-88
2022/12/08 11:39:12;;;;;;;3.22;0.90;;;4.30;99.90;;;;;;5011462;28;20110;-88
2022/12/08 11:41:52;;;;;;;3.03;1.15;;;4.20;99.90;;;;;;5012264;28;20421;-86
2022/12/08 11:48:05;;;;;;;1.48;0.50;;;4.20;99.90;;;;;;5023515;28;20421;-88
2022/12/08 11:50:51;;;;;;;2.97;0.60;;;4.30;99.90;;;;;;4936849;28;20142;-87
2022/12/08 11:53:43;;;;;;;6.07;0.77;;;4.50;99.90;;;;;;5018706;28;20108;-87
2022/12/08 11:56:40;;;;;;;2.90;1.15;;;4.60;99.90;;;;;;5003043;28;20512;-88
2022/12/08 11:59:44;;;;;;;2.22;0.80;;;4.80;99.90;;;;;;5006153;28;20211;-87
2022/12/08 12:02:58;;;;;;;4.68;0.95;;;4.90;99.90;;;;;;5021050;28;20049;-88
2022/12/08 12:05:50;;;;;;;2.20;0.98;;;4.90;99.90;;;;;;5018550;28;20048;-88
2022/12/08 12:08:58;;;;;;;2.55;0.77;;;5.10;99.90;;;;;;5012366;28;20052;-88
2022/12/08 12:12:21;;;;;;;2.97;0.52;;;5.20;99.90;;;;;;5022511;28;20083;-90
2022/12/08 12:15:27;;;;;;;0.93;0.40;;;5.60;99.90;;;;;;4987288;28;20050;-90
2022/12/08 12:18:04;;;;;;;6.47;0.77;;;5.60;99.90;;;;;;5022322;28;20041;-89
2022/12/08 12:20:54;;;;;;;1.70;0.60;;;5.70;99.90;;;;;;5016275;28;20553;-90
2022/12/08 12:24:19;;;;;;;2.10;0.50;;;5.80;99.90;;;;;;5041952;28;20041;-88
2022/12/08 12:27:03;;;;;;;1.67;0.50;;;5.90;99.90;;;;;;4984389;28;20568;-88
2022/12/08 12:32:24;;;;;;;2.58;0.63;;;6.00;99.90;;;;;;5021937;28;20037;-88
2022/12/08 12:35:13;;;;;;;;;;;;;;;;;;;;;
2022/12/08 12:39:07;;;;;;;1.08;0.40;;;5.90;99.90;;;;;;5020708;28;20120;-88
2022/12/08 12:42:14;;;;;;;1.45;0.40;;;5.80;99.90;;;;;;4947934;28;20042;-87
2022/12/08 12:44:43;;;;;;;2.35;0.70;;;5.80;99.90;;;;;;4968675;28;20058;-89
2022/12/08 12:47:52;;;;;;;1.37;0.40;;;5.70;99.90;;;;;;5013036;28;20614;-89
2022/12/08 12:51:02;;;;;;;1.80;0.40;;;5.80;99.90;;;;;;5034959;28;20049;-86
2022/12/08 12:53:36;;;;;;;2.60;0.55;;;5.70;99.90;;;;;;5016954;28;20037;-88
2022/12/08 12:56:38;;;;;;;0.93;0.30;;;5.70;99.90;;;;;;5018552;28;20081;-88
2022/12/08 13:02:43;;;;;;;3.70;0.65;;;5.70;99.90;;;;;;5017807;28;20394;-87
2022/12/08 13:05:52;;;;;;;1.67;0.75;;;5.50;99.90;;;;;;5019846;28;20046;-88
2022/12/08 13:08:39;;;;;;;2.78;0.45;;;5.50;99.90;;;;;;5004318;28;20123;-88
2022/12/08 13:11:08;;;;;;;2.42;1.08;;;5.50;99.90;;;;;;5027224;28;20052;-88
2022/12/08 13:13:59;;;;;;;2.70;0.65;;;5.40;99.90;;;;;;5025798;28;20045;-88
2022/12/08 13:17:02;;;;;;;1.58;0.40;;;5.50;99.90;;;;;;5002987;28;20505;-88
2022/12/08 13:19:46;;;;;;;2.45;0.50;;;5.50;99.90;;;;;;5034346;28;20414;-88
2022/12/08 13:22:55;;;;;;;1.53;0.37;;;5.50;99.90;;;;;;5026379;28;20056;-90
2022/12/08 13:25:44;;;;;;;5.65;0.40;;;5.40;99.90;;;;;;5038188;28;20041;-87
2022/12/08 13:28:31;;;;;;;1.63;0.30;;;5.40;99.90;;;;;;5026702;28;20129;-88
2022/12/08 13:31:01;;;;;;;0.88;0.38;;;5.40;99.90;;;;;;5024290;28;20037;-88
2022/12/08 13:34:10;;;;;;;2.65;0.50;;;5.30;99.90;;;;;;5026270;28;20037;-88
2022/12/08 13:43:39;;;;;;;5.20;0.88;;;5.30;99.90;;;;;;5012053;28;20037;-88
2022/12/08 13:46:36;;;;;;;1.88;0.40;;;5.30;99.90;;;;;;5027874;28;20514;-89
2022/12/08 13:49:38;;;;;;;1.90;0.50;;;5.30;99.90;;;;;;5021409;28;20034;-88
2022/12/08 13:53:07;;;;;;;2.47;0.80;;;5.30;99.90;;;;;;5029723;28;20052;-88
2022/12/08 13:55:49;;;;;;;1.90;0.82;;;5.20;99.90;;;;;;5038044;28;20053;-88
2022/12/08 13:58:56;;;;;;;0.98;0.60;;;5.20;99.90;;;;;;5018480;28;20050;-89
2022/12/08 14:02:25;;;;;;;1.88;0.73;;;5.20;99.90;;;;;;5011122;28;20045;-89
2022/12/08 14:05:08;;;;;;;0.83;0.40;;;5.10;99.90;;;;;;4963934;28;20081;-88
2022/12/08 14:08:01;;;;;;;2.40;0.47;;;4.90;99.90;;;;;;4967259;28;20466;-88
2022/12/08 14:10:34;;;;;;;1.75;0.43;;;4.90;99.90;;;;;;4969601;28;20119;-88
2022/12/08 14:13:14;;;;;;;2.30;0.55;;;4.90;99.90;;;;;;4977935;28;20054;-89
2022/12/08 14:16:34;;;;;;;2.85;0.90;;;4.80;99.90;;;;;;4950915;28;20078;-88